Time;durP1;ratioP1;P1;durP2;ratioP2;P2;SDS_P1;SDS_P2;PMS_P1;PMS_P2;Temp;Humidity;BMP_temperature;BMP_pressure;BME280_temperature;BME280_humidity;BME280_pressure;Samples;Min_cycle;Max_cycle;Signal;HPM_P1;HPM_P2
2022/09/13 00:00:34;;;;;;;6.43;3.40;;;;;;;14.40;100.00;156140.97;4988814;28;20041;-83
2022/09/13 00:03:01;;;;;;;8.87;3.87;;;;;;;14.18;100.00;156084.38;4995474;28;20053;-82
2022/09/13 00:05:27;;;;;;;8.02;3.80;;;;;;;14.20;100.00;156089.53;4985571;28;20064;-82
2022/09/13 00:07:54;;;;;;;6.95;3.63;;;;;;;14.09;100.00;156061.25;5012173;28;20033;-81
2022/09/13 00:10:20;;;;;;;4.55;3.85;;;;;;;14.05;100.00;156052.25;5017919;28;20040;-80
2022/09/13 00:12:47;;;;;;;6.75;3.70;;;;;;;14.01;100.00;156041.97;4977324;28;20104;-84
2022/09/13 00:15:13;;;;;;;8.52;4.00;;;;;;;13.97;100.00;156032.94;5010982;28;20040;-84
2022/09/13 00:17:38;;;;;;;7.68;3.92;;;;;;;13.97;100.00;156032.94;4973845;28;20030;-81
2022/09/13 00:20:05;;;;;;;5.88;3.45;;;;;;;14.00;100.00;156040.69;4981898;28;20037;-80
2022/09/13 00:22:30;;;;;;;4.75;3.80;;;;;;;13.93;100.00;156022.69;4994008;28;20450;-82
2022/09/13 00:24:56;;;;;;;6.15;4.00;;;;;;;13.93;100.00;156021.41;4978508;28;20025;-79
2022/09/13 00:27:21;;;;;;;6.70;3.80;;;;;;;13.99;100.00;156038.13;5015452;28;20033;-81
2022/09/13 00:29:47;;;;;;;6.00;3.97;;;;;;;14.02;100.00;156045.81;5003136;28;20037;-81
2022/09/13 00:32:12;;;;;;;4.70;3.60;;;;;;;14.05;100.00;156050.97;4999402;28;20036;-83
2022/09/13 00:34:38;;;;;;;4.18;3.60;;;;;;;14.04;100.00;156048.41;4996925;28;20029;-84
2022/09/13 00:37:10;;;;;;;5.43;3.97;;;;;;;14.07;100.00;156056.09;4978998;28;20087;-80
2022/09/13 00:39:44;;;;;;;4.28;3.58;;;;;;;13.83;100.00;155998.25;4980922;28;20040;-82
2022/09/13 00:42:25;;;;;;;7.82;4.03;;;;;;;13.88;100.00;156008.53;4994898;28;20099;-81
2022/09/13 00:44:56;;;;;;;5.40;4.03;;;;;;;13.93;100.00;156021.41;4978346;28;20069;-81
2022/09/13 00:47:32;;;;;;;7.88;4.05;;;;;;;14.02;100.00;156044.56;5004794;28;20034;-82
2022/09/13 00:50:06;;;;;;;9.82;4.25;;;;;;;13.93;100.00;156022.69;4987725;28;20123;-83
2022/09/13 00:52:34;;;;;;;9.27;4.78;;;;;;;13.91;100.00;156017.53;5003459;28;20045;-81
2022/09/13 00:55:26;;;;;;;10.90;4.22;;;;;;;13.80;100.00;155989.25;4990272;28;20041;-80
2022/09/13 00:58:01;;;;;;;11.68;4.38;;;;;;;13.80;100.00;155990.53;4977703;28;20558;-81
2022/09/13 01:00:27;;;;;;;13.33;5.20;;;;;;;13.89;100.00;156012.41;4993590;28;20064;-80
2022/09/13 01:02:59;;;;;;;11.50;5.38;;;;;;;13.82;100.00;155995.72;4995055;28;20633;-78
2022/09/13 01:05:31;;;;;;;9.95;6.10;;;;;;;13.76;100.00;155978.97;5013905;28;20115;-81
2022/09/13 01:07:58;;;;;;;11.00;6.25;;;;;;;13.71;100.00;155966.13;5012005;28;20522;-78
2022/09/13 01:10:25;;;;;;;8.63;5.85;;;;;;;13.70;100.00;155964.84;4998369;28;20080;-81
2022/09/13 01:13:04;;;;;;;11.23;5.95;;;;;;;13.55;100.00;155927.56;4982418;28;20041;-79
2022/09/13 01:15:29;;;;;;;9.50;5.78;;;;;;;13.64;100.00;155949.44;5024708;28;20026;-81
2022/09/13 01:17:55;;;;;;;6.72;6.03;;;;;;;13.59;100.00;155936.56;4996233;28;20038;-81
2022/09/13 01:20:33;;;;;;;7.85;5.53;;;;;;;13.57;100.00;155932.69;5012480;28;20053;-82
2022/09/13 01:23:19;;;;;;;6.60;6.00;;;;;;;13.57;100.00;155932.69;4999237;28;20029;-82
2022/09/13 01:26:02;;;;;;;7.55;6.03;;;;;;;13.59;100.00;155937.84;4996586;28;20045;-81
2022/09/13 01:28:57;;;;;;;11.02;6.35;;;;;;;13.65;100.00;155951.97;4992113;28;20527;-80
2022/09/13 01:31:36;;;;;;;7.07;6.37;;;;;;;13.68;100.00;155958.44;4979764;28;20684;-80
2022/09/13 01:34:22;;;;;;;8.88;6.50;;;;;;;13.61;100.00;155942.97;4995474;28;20574;-82
2022/09/13 01:37:14;;;;;;;8.70;6.18;;;;;;;13.55;100.00;155927.56;4997274;28;20526;-81
2022/09/13 01:40:03;;;;;;;8.18;6.03;;;;;;;13.63;100.00;155946.84;4994366;28;20046;-80
2022/09/13 01:42:47;;;;;;;10.70;7.07;;;;;;;13.60;100.00;155940.44;4988331;28;20097;-78
2022/09/13 01:45:22;;;;;;;10.63;6.80;;;;;;;13.61;100.00;155941.69;5008207;28;20056;-81
2022/09/13 01:48:18;;;;;;;11.23;6.53;;;;;;;13.66;100.00;155953.28;4994613;28;20045;-79
2022/09/13 01:51:01;;;;;;;10.50;7.00;;;;;;;13.71;100.00;155966.13;4973939;28;20572;-79
2022/09/13 01:53:54;;;;;;;9.27;6.28;;;;;;;13.77;100.00;155981.56;4988962;28;20068;-80
2022/09/13 01:56:49;;;;;;;9.35;6.65;;;;;;;13.81;100.00;155991.84;4984237;28;20034;-80
2022/09/13 01:59:47;;;;;;;10.23;7.35;;;;;;;13.69;100.00;155962.25;4989908;28;20410;-79
2022/09/13 02:02:22;;;;;;;11.43;6.90;;;;;;;13.73;100.00;155972.56;5009042;28;20415;-80
2022/09/13 02:04:58;;;;;;;7.03;6.32;;;;;;;13.76;100.00;155980.25;4989667;28;20026;-79
2022/09/13 02:07:29;;;;;;;8.85;6.40;;;;;;;13.79;100.00;155987.97;5013840;28;20495;-82
2022/09/13 02:10:01;;;;;;;9.65;6.95;;;;;;;13.72;100.00;155969.97;5001614;28;20042;-80
2022/09/13 02:12:31;;;;;;;7.28;6.55;;;;;;;13.67;100.00;155957.13;4997372;28;20159;-80
2022/09/13 02:15:11;;;;;;;7.65;6.65;;;;;;;13.73;100.00;155972.56;4980755;28;20037;-76
2022/09/13 02:17:40;;;;;;;10.10;6.43;;;;;;;13.79;100.00;155987.97;4994274;28;20056;-80
2022/09/13 02:20:17;;;;;;;8.60;5.97;;;;;;;13.77;100.00;155981.56;5026225;28;20051;-79
2022/09/13 02:22:49;;;;;;;8.73;6.13;;;;;;;13.79;100.00;155987.97;4992976;28;20050;-79
2022/09/13 02:25:18;;;;;;;8.35;6.18;;;;;;;13.75;100.00;155976.38;5012076;28;20426;-80
2022/09/13 02:27:53;;;;;;;7.32;6.15;;;;;;;13.75;100.00;155977.72;4984073;28;20043;-79
2022/09/13 02:30:19;;;;;;;7.47;6.70;;;;;;;13.74;100.00;155975.13;4976457;28;20037;-78
2022/09/13 02:32:55;;;;;;;6.32;5.70;;;;;;;13.72;100.00;155968.72;4983486;28;20041;-81
2022/09/13 02:35:32;;;;;;;9.15;6.82;;;;;;;13.69;100.00;155962.25;5004920;28;20064;-78
2022/09/13 02:38:06;;;;;;;10.50;7.18;;;;;;;13.69;100.00;155960.97;5011441;28;20053;-77
2022/09/13 02:40:48;;;;;;;7.25;6.55;;;;;;;13.74;100.00;155975.13;5015567;28;20034;-80
2022/09/13 02:43:21;;;;;;;7.32;6.57;;;;;;;13.74;100.00;155973.84;5024943;28;20077;-77
2022/09/13 02:45:57;;;;;;;10.85;7.75;;;;;;;13.66;100.00;155954.56;5008375;28;20101;-78
2022/09/13 02:48:32;;;;;;;10.25;6.90;;;;;;;13.65;100.00;155950.69;5014153;28;20033;-78
2022/09/13 02:51:26;;;;;;;8.82;7.63;;;;;;;13.60;100.00;155940.44;5014764;28;20056;-79
2022/09/13 02:53:54;;;;;;;;;;;;;;;13.61;100.00;155942.97;4985166;28;20192;-79
2022/09/13 02:56:36;;;;;;;7.65;6.95;;;;;;;13.61;100.00;155942.97;5004580;28;19968;-78
2022/09/13 02:59:14;;;;;;;9.98;8.02;;;;;;;13.66;100.00;155953.28;5022652;28;20034;-79
2022/09/13 03:01:44;;;;;;;11.18;8.65;;;;;;;13.72;100.00;155968.72;5025396;28;20036;-81
2022/09/13 03:04:10;;;;;;;14.43;8.57;;;;;;;13.68;100.00;155959.72;5021094;28;20352;-79
2022/09/13 03:06:38;;;;;;;9.65;8.48;;;;;;;13.65;100.00;155950.69;5001845;28;20537;-79
2022/09/13 03:09:05;;;;;;;9.80;7.75;;;;;;;13.68;100.00;155958.44;4989561;28;20087;-80
2022/09/13 03:11:55;;;;;;;9.23;7.97;;;;;;;13.62;100.00;155944.28;5003209;28;20033;-79
2022/09/13 03:14:39;;;;;;;9.32;8.05;;;;;;;13.69;100.00;155960.97;5024250;28;20029;-78
2022/09/13 03:17:20;;;;;;;13.25;8.38;;;;;;;13.68;100.00;155958.44;4990782;28;20037;-80
2022/09/13 03:19:55;;;;;;;9.00;8.05;;;;;;;13.78;100.00;155985.41;5001536;28;20125;-79
2022/09/13 03:22:57;;;;;;;10.40;8.35;;;;;;;13.81;100.00;155991.84;5003073;28;20033;-79
2022/09/13 03:25:48;;;;;;;12.23;8.95;;;;;;;13.84;100.00;155999.53;5003593;28;20050;-79
2022/09/13 03:28:51;;;;;;;10.35;8.55;;;;;;;13.86;100.00;156004.66;5017408;28;20037;-79
2022/09/13 03:31:24;;;;;;;11.38;8.40;;;;;;;13.77;100.00;155981.56;4954158;28;20049;-80
2022/09/13 03:33:57;;;;;;;9.95;8.45;;;;;;;13.76;100.00;155978.97;5003088;28;20034;-79
2022/09/13 03:36:35;;;;;;;11.15;8.18;;;;;;;13.78;100.00;155985.41;5025959;28;20026;-78
2022/09/13 03:39:29;;;;;;;13.90;9.35;;;;;;;13.85;100.00;156000.84;5003676;28;20034;-81
2022/09/13 03:41:57;;;;;;;10.40;8.88;;;;;;;13.85;100.00;156002.13;5000804;28;20049;-81
2022/09/13 03:44:25;;;;;;;12.20;9.30;;;;;;;13.85;100.00;156000.84;5000935;28;20091;-81
2022/09/13 03:46:56;;;;;;;13.95;9.50;;;;;;;13.92;100.00;156020.13;5003619;28;20092;-80
2022/09/13 03:49:25;;;;;;;12.93;9.82;;;;;;;13.92;100.00;156020.13;5014930;28;20037;-80
2022/09/13 03:51:52;;;;;;;12.63;9.43;;;;;;;13.95;100.00;156027.81;4988687;28;20037;-81
2022/09/13 03:54:28;;;;;;;14.13;9.93;;;;;;;13.98;100.00;156035.56;5001514;28;20058;-81
2022/09/13 03:57:20;;;;;;;13.23;9.75;;;;;;;13.98;100.00;156034.28;4998436;28;20135;-79
2022/09/13 03:59:48;;;;;;;13.45;10.25;;;;;;;13.99;100.00;156038.13;5009637;28;20105;-79
2022/09/13 04:02:16;;;;;;;13.20;10.50;;;;;;;14.03;100.00;156047.09;4999157;28;20033;-80
2022/09/13 04:04:42;;;;;;;13.63;10.95;;;;;;;14.01;100.00;156041.97;4994532;28;20029;-79
2022/09/13 04:07:10;;;;;;;13.07;10.68;;;;;;;14.05;100.00;156050.97;5000252;28;20448;-81
2022/09/13 04:09:36;;;;;;;16.20;11.07;;;;;;;14.06;100.00;156053.56;5006711;28;20057;-79
2022/09/13 04:12:02;;;;;;;14.85;11.43;;;;;;;14.07;100.00;156056.09;4979835;28;20475;-79
2022/09/13 04:14:29;;;;;;;16.17;11.70;;;;;;;14.04;100.00;156048.41;4994117;28;20032;-81
2022/09/13 04:16:56;;;;;;;15.77;11.60;;;;;;;14.02;100.00;156044.56;5017897;28;20432;-82
2022/09/13 04:19:23;;;;;;;13.68;10.77;;;;;;;13.98;100.00;156034.28;5020551;28;20041;-82
2022/09/13 04:21:50;;;;;;;13.93;10.55;;;;;;;13.95;100.00;156027.81;5018826;28;20117;-82
2022/09/13 04:24:17;;;;;;;14.77;12.10;;;;;;;14.01;100.00;156041.97;5011460;28;20041;-81
2022/09/13 04:26:44;;;;;;;15.90;12.18;;;;;;;14.06;100.00;156054.81;5013569;28;20057;-81
2022/09/13 04:29:10;;;;;;;17.02;12.77;;;;;;;14.06;100.00;156054.81;5001702;28;20072;-80
2022/09/13 04:31:36;;;;;;;18.17;12.75;;;;;;;14.08;100.00;156059.97;4999703;28;20104;-81
2022/09/13 04:34:03;;;;;;;19.92;13.60;;;;;;;14.15;100.00;156076.72;5002332;28;20029;-78
2022/09/13 04:36:28;;;;;;;19.15;13.18;;;;;;;14.13;100.00;156072.84;4980593;28;20029;-80
2022/09/13 04:38:54;;;;;;;22.00;12.45;;;;;;;14.10;100.00;156063.84;5013125;28;20577;-81
2022/09/13 04:41:20;;;;;;;19.13;13.55;;;;;;;14.12;100.00;156068.97;5000134;28;20030;-78
2022/09/13 04:43:49;;;;;;;17.00;12.80;;;;;;;14.09;100.00;156061.25;4986544;28;20064;-81
2022/09/13 04:46:15;;;;;;;20.35;13.07;;;;;;;14.03;100.00;156047.09;5020040;28;20029;-80
2022/09/13 04:48:41;;;;;;;20.77;13.25;;;;;;;14.07;100.00;156057.41;4997927;28;20091;-81
2022/09/13 04:51:07;;;;;;;27.77;14.45;;;;;;;14.08;100.00;156059.97;4998091;28;20033;-79
2022/09/13 04:53:32;;;;;;;20.20;14.50;;;;;;;14.07;100.00;156057.41;4988983;28;20034;-79
2022/09/13 04:56:05;;;;;;;22.75;13.57;;;;;;;14.09;100.00;156062.56;4995932;28;20045;-78
2022/09/13 04:58:31;;;;;;;23.08;15.25;;;;;;;14.11;100.00;156067.69;4973328;28;20084;-79
2022/09/13 05:01:05;;;;;;;20.35;14.65;;;;;;;14.10;100.00;156065.09;5031381;28;20033;-80
2022/09/13 05:03:32;;;;;;;33.25;20.60;;;;;;;14.20;100.00;156090.84;5027085;28;20095;-79
2022/09/13 05:06:08;;;;;;;27.65;17.52;;;;;;;14.22;100.00;156094.66;5004341;28;20053;-79
2022/09/13 05:08:35;;;;;;;31.98;18.00;;;;;;;14.19;100.00;156088.25;4998033;28;20442;-79
2022/09/13 05:11:01;;;;;;;30.52;18.90;;;;;;;14.14;100.00;156074.09;4998547;28;20220;-79
2022/09/13 05:13:27;;;;;;;32.75;19.83;;;;;;;14.10;100.00;156065.09;4997393;28;20030;-81
2022/09/13 05:15:57;;;;;;;33.38;20.30;;;;;;;14.18;100.00;156085.72;5010375;28;20034;-79
2022/09/13 05:18:28;;;;;;;27.70;17.42;;;;;;;14.16;100.00;156080.53;4998095;28;20041;-80
2022/09/13 05:20:55;;;;;;;33.65;18.98;;;;;;;14.21;100.00;156093.41;5012618;28;20134;-79
2022/09/13 05:23:21;;;;;;;29.80;18.75;;;;;;;14.19;100.00;156086.97;5008292;28;20399;-79
2022/09/13 05:25:58;;;;;;;38.38;21.50;;;;;;;14.20;100.00;156089.53;5013796;28;20048;-79
2022/09/13 05:28:25;;;;;;;37.83;21.50;;;;;;;14.21;100.00;156093.41;5012802;28;20097;-80
2022/09/13 05:31:02;;;;;;;34.42;20.73;;;;;;;14.20;100.00;156089.53;5000634;28;20041;-80
2022/09/13 05:33:31;;;;;;;38.28;22.73;;;;;;;14.24;100.00;156098.53;4988300;28;20033;-79
2022/09/13 05:35:56;;;;;;;32.08;20.95;;;;;;;14.27;100.00;156107.53;5032985;28;20087;-78
2022/09/13 05:38:23;;;;;;;42.55;23.42;;;;;;;14.37;100.00;156133.28;4995227;28;20560;-80
2022/09/13 05:41:00;;;;;;;44.65;24.02;;;;;;;14.31;100.00;156117.81;4994647;28;20041;-79
2022/09/13 05:43:28;;;;;;;40.97;23.50;;;;;;;14.42;100.00;156144.84;4998734;28;20033;-82
2022/09/13 05:46:05;;;;;;;45.13;25.05;;;;;;;14.48;100.00;156158.97;4997587;28;20391;-81
2022/09/13 05:48:32;;;;;;;42.70;25.50;;;;;;;14.49;100.00;156162.84;4988940;28;20034;-80
2022/09/13 05:51:16;;;;;;;40.40;25.17;;;;;;;14.53;100.00;156173.13;5015091;28;20033;-81
2022/09/13 05:53:44;;;;;;;44.03;25.88;;;;;;;14.54;100.00;156175.72;4978947;28;20060;-80
2022/09/13 05:56:15;;;;;;;41.03;23.80;;;;;;;14.63;100.00;156196.34;4999010;28;20053;-79
2022/09/13 05:58:43;;;;;;;46.88;23.13;;;;;;;14.63;100.00;156197.59;5025721;28;20679;-79
2022/09/13 06:01:10;;;;;;;40.08;24.23;;;;;;;14.69;100.00;156211.75;5014465;28;20037;-81
2022/09/13 06:03:35;;;;;;;44.03;24.67;;;;;;;14.74;100.00;156225.91;4999768;28;20794;-80
2022/09/13 06:06:02;;;;;;;40.78;25.70;;;;;;;14.85;100.00;156251.66;4997497;28;20121;-78
2022/09/13 06:08:29;;;;;;;44.10;24.25;;;;;;;14.95;100.00;156278.63;4995610;28;20038;-81
2022/09/13 06:11:01;;;;;;;39.00;24.17;;;;;;;14.99;100.00;156287.63;5000555;28;20507;-81
2022/09/13 06:13:27;;;;;;;40.80;24.33;;;;;;;15.00;100.00;156290.25;5014771;28;20034;-81
2022/09/13 06:15:54;;;;;;;37.10;23.80;;;;;;;15.09;100.00;156313.41;5009274;28;20049;-79
2022/09/13 06:18:20;;;;;;;31.83;22.17;;;;;;;15.05;100.00;156303.13;5017078;28;20046;-79
2022/09/13 06:20:46;;;;;;;45.63;24.05;;;;;;;15.07;100.00;156306.94;4986320;28;20648;-81
2022/09/13 06:23:13;;;;;;;39.28;23.30;;;;;;;15.11;100.00;156318.53;5016655;28;20040;-78
2022/09/13 06:25:39;;;;;;;44.45;23.58;;;;;;;15.06;100.00;156305.66;5034658;28;20036;-80
2022/09/13 06:28:04;;;;;;;35.42;22.85;;;;;;;15.11;100.00;156317.28;5002107;28;20037;-80
2022/09/13 06:30:30;;;;;;;38.17;22.85;;;;;;;15.01;100.00;156292.78;5025290;28;20021;-80
2022/09/13 06:32:56;;;;;;;36.38;21.55;;;;;;;15.16;100.00;156331.41;5000099;28;20034;-79
2022/09/13 06:35:22;;;;;;;36.92;22.33;;;;;;;15.25;100.00;156353.25;5000459;28;20045;-80
2022/09/13 06:37:48;;;;;;;34.05;20.33;;;;;;;15.25;100.00;156352.00;5000161;28;20514;-79
2022/09/13 06:40:14;;;;;;;32.97;21.00;;;;;;;15.27;100.00;156358.41;5017220;28;20095;-80
2022/09/13 06:42:39;;;;;;;34.47;21.88;;;;;;;15.37;100.00;156382.88;5027600;28;20037;-81
2022/09/13 06:45:06;;;;;;;34.00;20.92;;;;;;;15.46;100.00;156404.72;4999337;28;20250;-78
2022/09/13 06:47:31;;;;;;;39.20;22.38;;;;;;;15.55;100.00;156427.91;5001791;28;20459;-78
2022/09/13 06:49:57;;;;;;;36.08;21.42;;;;;;;15.74;100.00;156475.56;5003246;28;20119;-79
2022/09/13 06:52:23;;;;;;;31.23;20.27;;;;;;;15.74;100.00;156476.84;5002485;28;20072;-79
2022/09/13 06:54:49;;;;;;;34.05;20.05;;;;;;;15.74;100.00;156476.84;4999928;28;20037;-79
2022/09/13 06:57:15;;;;;;;33.53;19.30;;;;;;;15.85;100.00;156503.88;4985788;28;20029;-80
2022/09/13 06:59:40;;;;;;;30.63;19.88;;;;;;;16.06;100.00;156556.66;4999520;28;20049;-79
2022/09/13 07:02:06;;;;;;;27.35;17.92;;;;;;;16.20;100.00;156590.09;5028081;28;20045;-79
2022/09/13 07:04:31;;;;;;;28.90;17.90;;;;;;;16.23;100.00;156599.13;5000054;28;20041;-80
2022/09/13 07:06:59;;;;;;;25.92;17.55;;;;;;;16.31;100.00;156618.44;4979256;28;20410;-79
2022/09/13 07:09:25;;;;;;;27.08;16.60;;;;;;;16.24;100.00;156601.72;5009245;28;20046;-79
2022/09/13 07:11:53;;;;;;;24.50;14.48;;;;;;;16.27;100.00;156608.16;5016495;28;20034;-78
2022/09/13 07:14:25;;;;;;;23.25;15.40;;;;;;;16.26;100.00;156605.59;4984511;28;20025;-78
2022/09/13 07:16:51;;;;;;;22.92;14.57;;;;;;;16.26;100.00;156605.59;5016633;28;20067;-79
2022/09/13 07:19:21;;;;;;;20.92;13.68;;;;;;;16.27;100.00;156609.41;5004224;28;20052;-78
2022/09/13 07:21:48;;;;;;;19.35;13.55;;;;;;;16.37;100.00;156633.91;4999572;28;20033;-78
2022/09/13 07:24:15;;;;;;;21.45;14.38;;;;;;;16.37;100.00;156633.91;5017264;28;20040;-78
2022/09/13 07:26:41;;;;;;;23.00;14.18;;;;;;;16.38;100.00;156636.47;4989289;28;20519;-80
2022/09/13 07:29:11;;;;;;;19.60;12.98;;;;;;;16.42;100.00;156646.75;4985999;28;20038;-78
2022/09/13 07:31:39;;;;;;;20.73;12.30;;;;;;;16.47;100.00;156658.38;5018001;28;20509;-78
2022/09/13 07:34:07;;;;;;;24.45;12.40;;;;;;;16.59;100.00;156687.97;5010241;28;20076;-78
2022/09/13 07:36:35;;;;;;;20.15;12.38;;;;;;;16.65;100.00;156704.72;5017189;28;20045;-77
2022/09/13 07:39:02;;;;;;;18.27;11.65;;;;;;;16.63;100.00;156699.59;5003505;28;20110;-76
2022/09/13 07:41:29;;;;;;;20.13;12.35;;;;;;;16.68;100.00;156712.44;5009919;28;20557;-78
2022/09/13 07:43:55;;;;;;;20.08;12.57;;;;;;;16.69;100.00;156715.03;5018320;28;20069;-78
2022/09/13 07:46:23;;;;;;;20.25;12.25;;;;;;;16.91;100.00;156770.47;4982838;28;20033;-77
2022/09/13 07:48:52;;;;;;;20.50;11.90;;;;;;;17.21;100.00;156843.84;4996775;28;20341;-77
2022/09/13 07:51:20;;;;;;;18.17;10.63;;;;;;;17.34;100.00;156877.34;4995580;28;20522;-79
2022/09/13 07:53:48;;;;;;;17.33;11.38;;;;;;;17.30;100.00;156867.03;4992258;28;20034;-79
2022/09/13 07:56:16;;;;;;;14.90;10.45;;;;;;;17.41;100.00;156895.38;5004336;28;20037;-79
2022/09/13 07:58:45;;;;;;;18.95;10.57;;;;;;;17.40;100.00;156892.78;5012016;28;20510;-81
2022/09/13 08:01:15;;;;;;;20.00;10.57;;;;;;;17.40;100.00;156892.78;4998823;28;20079;-77
2022/09/13 08:03:41;;;;;;;18.58;10.57;;;;;;;17.32;100.00;156872.19;5018209;28;20630;-79
2022/09/13 08:06:08;;;;;;;16.33;10.43;;;;;;;17.37;100.00;156885.09;5016118;28;20045;-80
2022/09/13 08:08:35;;;;;;;17.20;10.18;;;;;;;17.22;100.00;156847.72;5001736;28;20100;-79
2022/09/13 08:11:03;;;;;;;21.63;10.93;;;;;;;17.07;100.00;156810.38;4983455;28;20045;-80
2022/09/13 08:13:31;;;;;;;23.95;10.48;;;;;;;17.04;100.00;156802.63;5007329;28;20450;-81
2022/09/13 08:16:02;;;;;;;17.85;10.05;;;;;;;16.90;100.00;156767.88;4987087;28;20048;-80
2022/09/13 08:18:28;;;;;;;18.30;9.95;;;;;;;16.99;100.00;156788.47;5016669;28;20041;-80
2022/09/13 08:20:57;;;;;;;18.77;9.30;;;;;;;17.04;100.00;156801.34;4999116;28;20059;-82
2022/09/13 08:23:24;;;;;;;15.88;9.02;;;;;;;16.99;100.00;156789.78;4995710;28;20096;-80
2022/09/13 08:25:50;;;;;;;13.52;8.05;;;;;;;16.85;100.00;156753.69;4977874;28;20033;-79
2022/09/13 08:28:20;;;;;;;17.50;8.40;;;;;;;16.96;100.00;156780.75;5016345;28;20473;-79
2022/09/13 08:30:47;;;;;;;12.70;6.60;;;;;;;17.15;100.00;156828.41;5001702;28;20059;-81
2022/09/13 08:33:13;;;;;;;14.73;7.20;;;;;;;17.24;100.00;156852.88;5013662;28;20039;-79
2022/09/13 08:35:39;;;;;;;14.38;7.00;;;;;;;17.46;100.00;156908.28;4995137;28;20065;-79
2022/09/13 08:38:06;;;;;;;13.38;5.80;;;;;;;17.38;100.00;156887.63;4983839;28;20043;-79
2022/09/13 08:40:39;;;;;;;12.25;5.47;;;;;;;17.34;100.00;156876.06;4994977;28;20471;-81
2022/09/13 08:43:24;;;;;;;15.85;5.72;;;;;;;17.21;100.00;156843.84;4997385;28;20040;-79
2022/09/13 08:46:12;;;;;;;15.52;4.55;;;;;;;17.12;100.00;156821.94;4994819;28;20113;-79
2022/09/13 08:48:46;;;;;;;12.25;4.63;;;;;;;17.01;100.00;156794.91;4996083;28;20471;-79
2022/09/13 08:51:31;;;;;;;10.57;4.53;;;;;;;16.98;100.00;156785.91;5009724;28;20426;-79
2022/09/13 08:53:58;;;;;;;7.80;3.83;;;;;;;16.97;100.00;156784.63;4998793;28;20120;-80
2022/09/13 08:57:02;;;;;;;11.25;4.45;;;;;;;17.22;100.00;156847.72;4993598;28;20396;-80
2022/09/13 09:00:23;;;;;;;13.07;3.20;;;;;;;17.25;100.00;156855.47;4999425;28;20033;-79
2022/09/13 09:03:15;;;;;;;7.30;2.50;;;;;;;17.21;100.00;156843.84;4937777;28;20050;-81
2022/09/13 09:05:47;;;;;;;8.18;3.10;;;;;;;17.16;100.00;156832.28;5003387;28;20045;-79
2022/09/13 09:08:26;;;;;;;11.60;3.05;;;;;;;17.29;100.00;156865.75;4996594;28;20381;-82
2022/09/13 09:10:56;;;;;;;9.57;2.78;;;;;;;17.13;100.00;156825.81;5001509;28;20052;-79
2022/09/13 09:13:35;;;;;;;7.72;2.10;;;;;;;17.15;100.00;156828.41;4997322;28;20061;-78
2022/09/13 09:16:11;;;;;;;9.30;2.00;;;;;;;17.02;100.00;156797.47;4985710;28;20043;-80
2022/09/13 09:18:42;;;;;;;7.72;1.65;;;;;;;17.12;100.00;156823.25;4999848;28;20041;-80
2022/09/13 09:21:15;;;;;;;13.55;3.75;;;;;;;17.41;100.00;156894.09;5018162;28;20037;-79
2022/09/13 09:23:49;;;;;;;6.20;1.70;;;;;;;17.36;100.00;156882.50;4978854;28;20026;-80
2022/09/13 09:26:21;;;;;;;10.93;1.60;;;;;;;17.43;100.00;156900.53;5013826;28;20645;-79
2022/09/13 09:29:26;;;;;;;5.13;1.70;;;;;;;17.47;100.00;156910.81;5000231;28;20099;-79
2022/09/13 09:32:19;;;;;;;8.77;1.88;;;;;;;17.42;100.00;156896.66;5009908;28;20051;-79
2022/09/13 09:34:51;;;;;;;7.38;1.60;;;;;;;17.42;100.00;156897.97;4998012;28;20047;-82
2022/09/13 09:37:26;;;;;;;7.80;1.63;;;;;;;17.39;100.00;156890.22;5000893;28;20041;-78
2022/09/13 09:39:54;;;;;;;8.95;1.35;;;;;;;17.51;100.00;156919.84;4997285;28;20299;-80
2022/09/13 09:42:28;;;;;;;7.80;1.48;;;;;;;17.45;100.00;156905.69;4974807;28;20103;-79
2022/09/13 09:45:03;;;;;;;7.65;1.88;;;;;;;17.60;100.00;156941.78;4980986;28;20041;-79
2022/09/13 09:47:41;;;;;;;8.63;1.63;;;;;;;17.99;100.00;157039.72;4998077;28;20026;-82
2022/09/13 09:50:16;;;;;;;6.65;1.50;;;;;;;18.31;100.00;157119.63;4996778;28;20045;-81
2022/09/13 09:53:00;;;;;;;8.55;1.40;;;;;;;18.80;100.00;157244.75;4980318;28;20041;-79
2022/09/13 09:55:27;;;;;;;7.78;1.30;;;;;;;19.05;100.00;157307.91;4986158;28;20042;-79
2022/09/13 09:58:05;;;;;;;8.40;1.23;;;;;;;19.19;100.00;157342.75;4995072;28;20033;-81
2022/09/13 10:00:38;;;;;;;3.75;0.95;;;;;;;19.16;96.19;157335.00;4993646;28;20033;-79
2022/09/13 10:03:24;;;;;;;11.23;1.33;;;;;;;19.18;91.95;157338.88;5009971;28;20093;-80
2022/09/13 10:05:49;;;;;;;5.97;1.05;;;;;;;19.30;95.09;157369.78;4978616;28;20030;-79
2022/09/13 10:08:28;;;;;;;9.77;1.50;;;;;;;19.33;87.57;157377.53;4995032;28;20033;-80
2022/09/13 10:10:56;;;;;;;4.85;0.82;;;;;;;19.57;96.13;157436.84;5000954;28;20029;-83
2022/09/13 10:13:23;;;;;;;4.97;0.90;;;;;;;19.65;98.14;157457.50;4983850;28;21047;-81
2022/09/13 10:15:56;;;;;;;7.35;0.93;;;;;;;19.82;92.11;157501.41;4994478;28;20136;-79
2022/09/13 10:18:24;;;;;;;6.00;0.90;;;;;;;20.00;93.86;157546.56;5023306;28;20089;-81
2022/09/13 10:21:20;;;;;;;3.85;0.90;;;;;;;20.11;90.98;157572.34;5025798;28;20036;-77
2022/09/13 10:23:49;;;;;;;7.15;1.08;;;;;;;20.28;92.97;157614.94;4985002;28;20658;-83
2022/09/13 10:26:24;;;;;;;6.63;1.27;;;;;;;20.21;88.88;157599.47;4993206;28;20033;-81
2022/09/13 10:29:07;;;;;;;6.97;0.90;;;;;;;20.19;81.61;157594.31;4997557;28;20440;-81
2022/09/13 10:31:36;;;;;;;6.68;0.60;;;;;;;20.30;91.11;157620.09;4993118;28;20053;-80
2022/09/13 10:34:13;;;;;;;11.25;1.13;;;;;;;20.66;88.96;157710.47;4980014;28;20045;-77
2022/09/13 10:36:55;;;;;;;8.57;1.05;;;;;;;20.50;85.92;157670.44;5006432;28;20048;-80
2022/09/13 10:39:22;;;;;;;7.95;0.90;;;;;;;20.40;83.98;157645.94;5006616;28;20037;-78
2022/09/13 10:42:09;;;;;;;5.60;1.27;;;;;;;20.45;77.20;157658.78;4996446;28;20119;-81
2022/09/13 10:44:43;;;;;;;10.32;1.65;;;;;;;20.49;79.43;157669.09;4997233;28;20033;-78
2022/09/13 10:47:18;;;;;;;9.30;1.45;;;;;;;20.57;77.71;157689.78;5010374;28;20060;-80
2022/09/13 10:49:47;;;;;;;6.45;1.08;;;;;;;20.49;87.23;157669.09;4997371;28;20033;-79
2022/09/13 10:52:40;;;;;;;9.63;1.02;;;;;;;20.75;81.74;157733.69;4994678;28;20041;-80
2022/09/13 10:55:18;;;;;;;4.78;1.17;;;;;;;20.83;74.93;157754.31;4996503;28;20635;-79
2022/09/13 10:57:49;;;;;;;9.88;1.13;;;;;;;20.77;78.44;157740.13;4980697;28;20076;-80
2022/09/13 11:00:29;;;;;;;7.38;1.23;;;;;;;20.83;70.89;157754.31;4999267;28;20061;-83
2022/09/13 11:02:55;;;;;;;5.93;0.90;;;;;;;20.95;81.54;157784.06;5016815;28;20037;-81
2022/09/13 11:05:41;;;;;;;8.30;0.88;;;;;;;20.85;74.34;157759.53;4998643;28;20239;-81
2022/09/13 11:08:33;;;;;;;7.03;1.00;;;;;;;21.13;71.03;157829.22;4981947;28;20087;-81
2022/09/13 11:11:10;;;;;;;5.38;1.00;;;;;;;21.55;76.42;157935.16;4979536;28;20029;-77
2022/09/13 11:13:46;;;;;;;7.82;0.73;;;;;;;21.75;70.86;157985.47;4977181;28;20034;-81
2022/09/13 11:16:40;;;;;;;5.28;1.00;;;;;;;21.65;69.69;157960.94;4999331;28;20029;-82
2022/09/13 11:19:20;;;;;;;6.13;0.85;;;;;;;21.67;65.26;157964.84;5003924;28;20069;-80
2022/09/13 11:22:13;;;;;;;6.72;0.80;;;;;;;21.63;66.36;157954.50;4975854;28;20620;-81
2022/09/13 11:24:54;;;;;;;6.28;1.10;;;;;;;21.72;63.88;157979.03;4981352;28;20495;-83
2022/09/13 11:27:39;;;;;;;6.47;1.50;;;;;;;21.69;72.52;157971.25;4989421;28;20077;-80
2022/09/13 11:30:18;;;;;;;8.45;2.33;;;;;;;21.84;77.10;158008.72;4982997;28;20049;-79
2022/09/13 11:33:20;;;;;;;5.93;1.20;;;;;;;21.74;64.70;157984.19;4985490;28;20580;-83
2022/09/13 11:35:56;;;;;;;4.57;1.50;;;;;;;22.03;66.42;158056.50;5031487;28;20514;-81
2022/09/13 11:38:38;;;;;;;6.25;1.15;;;;;;;22.36;66.25;158139.22;5013846;28;20490;-80